Time;durP1;ratioP1;P1;durP2;ratioP2;P2;SDS_P1;SDS_P2;PMS_P1;PMS_P2;Temp;Humidity;BMP_temperature;BMP_pressure;BME280_temperature;BME280_humidity;BME280_pressure;Samples;Min_cycle;Max_cycle;Signal;HPM_P1;HPM_P2
2022/11/15 00:00:17;;;;;;;15.33;5.67;;;;;;;-0.09;100.00;100484.81;1482957;96;21127;-76
2022/11/15 00:03:04;;;;;;;16.17;7.20;;;;;;;-0.14;100.00;100485.56;1511096;94;21546;-78
2022/11/15 00:05:49;;;;;;;14.33;5.43;;;;;;;-0.21;100.00;100487.27;1483796;95;21277;-77
2022/11/15 00:08:36;;;;;;;13.23;5.17;;;;;;;-0.26;100.00;100480.53;1508363;94;21508;-77
2022/11/15 00:11:21;;;;;;;14.00;5.30;;;;;;;-0.32;100.00;100476.44;1483706;95;21566;-77
2022/11/15 00:14:06;;;;;;;12.83;5.47;;;;;;;-0.36;100.00;100480.68;1514055;94;21138;-76
2022/11/15 00:16:52;;;;;;;11.27;5.23;;;;;;;-0.43;100.00;100478.85;1483263;96;21097;-76
2022/11/15 00:19:37;;;;;;;12.30;5.00;;;;;;;-0.49;100.00;100483.20;1509531;92;21124;-77
2022/11/15 00:22:22;;;;;;;14.87;5.53;;;;;;;-0.55;100.00;100478.23;1539881;93;21531;-77
2022/11/15 00:25:08;;;;;;;14.53;5.47;;;;;;;-0.62;100.00;100471.09;1555624;91;21134;-77
2022/11/15 00:27:58;;;;;;;13.13;4.97;;;;;;;-0.67;100.00;100475.84;1545672;93;21605;-77
2022/11/15 00:30:43;;;;;;;13.00;5.13;;;;;;;-0.72;100.00;100477.42;1575188;90;21052;-78
2022/11/15 00:33:30;;;;;;;12.57;5.50;;;;;;;-0.75;100.00;100476.26;1545766;93;21098;-77
2022/11/15 00:36:15;;;;;;;14.27;5.80;;;;;;;-0.74;100.00;100473.12;1531331;93;21122;-77
2022/11/15 00:39:03;;;;;;;15.83;5.90;;;;;;;-0.74;100.00;100471.80;1546051;93;21089;-77
2022/11/15 00:41:49;;;;;;;15.37;6.03;;;;;;;-0.75;100.00;100478.06;1575647;90;21103;-78
2022/11/15 00:44:34;;;;;;;18.07;6.07;;;;;;;-0.79;100.00;100478.23;1545962;93;21074;-75
2022/11/15 00:47:20;;;;;;;12.33;5.83;;;;;;;-0.80;100.00;100474.34;1521129;94;21564;-77
2022/11/15 00:50:07;;;;;;;10.63;5.17;;;;;;;-0.83;100.00;100470.55;1545876;93;21140;-77
2022/11/15 00:52:52;;;;;;;10.33;5.37;;;;;;;-0.89;100.00;100464.25;1520903;94;21094;-77
2022/11/15 00:55:37;;;;;;;14.33;5.47;;;;;;;-0.97;100.00;100464.21;1531120;94;21054;-78
2022/11/15 00:58:24;;;;;;;15.20;5.67;;;;;;;-0.94;100.00;100458.34;1531691;93;21050;-76
2022/11/15 01:01:11;;;;;;;12.67;5.20;;;;;;;-0.92;100.00;100457.78;1559572;91;21055;-78
2022/11/15 01:03:57;;;;;;;12.63;5.20;;;;;;;-0.91;100.00;100452.38;1573917;90;21077;-76
2022/11/15 01:06:42;;;;;;;13.70;6.00;;;;;;;-0.89;100.00;100452.30;1559895;91;21116;-76
2022/11/15 01:09:28;;;;;;;17.97;7.63;;;;;;;-0.87;100.00;100449.08;1573578;91;21044;-77
2022/11/15 01:12:14;;;;;;;14.43;7.07;;;;;;;-0.80;100.00;100452.64;1573653;90;21079;-76
2022/11/15 01:14:59;;;;;;;19.13;8.70;;;;;;;-0.69;100.00;100441.84;1574810;91;21123;-76
2022/11/15 01:17:44;;;;;;;19.63;8.33;;;;;;;-0.62;100.00;100432.12;1575698;91;21075;-76
2022/11/15 01:20:31;;;;;;;18.47;8.63;;;;;;;-0.54;100.00;100426.34;1575479;91;21036;-77
2022/11/15 01:23:17;;;;;;;19.23;7.67;;;;;;;-0.47;100.00;100433.01;1575675;91;21134;-77
2022/11/15 01:26:05;;;;;;;15.73;7.27;;;;;;;-0.44;100.00;100427.52;1576972;91;21079;-78
2022/11/15 01:28:50;;;;;;;15.87;7.50;;;;;;;-0.42;100.00;100422.97;1579523;91;21032;-79
2022/11/15 01:31:35;;;;;;;14.83;7.03;;;;;;;-0.41;100.00;100424.69;1579329;90;21119;-77
2022/11/15 01:34:20;;;;;;;20.00;9.07;;;;;;;-0.39;100.00;100424.13;1580203;90;21035;-76
2022/11/15 01:37:06;;;;;;;19.87;9.30;;;;;;;-0.37;100.00;100417.84;1580974;90;21106;-76
2022/11/15 01:39:51;;;;;;;19.43;7.73;;;;;;;-0.34;100.00;100422.98;1581225;91;21022;-77
2022/11/15 01:42:38;;;;;;;21.10;8.30;;;;;;;-0.34;100.00;100417.66;1579958;90;21083;-77
2022/11/15 01:45:24;;;;;;;17.37;7.47;;;;;;;-0.36;100.00;100419.08;1578958;91;21055;-77
2022/11/15 01:48:10;;;;;;;16.33;7.20;;;;;;;-0.39;100.00;100422.80;1578874;91;21078;-76
2022/11/15 01:50:55;;;;;;;18.37;8.20;;;;;;;-0.41;100.00;100433.99;1579030;91;21091;-78
2022/11/15 01:53:43;;;;;;;17.13;8.10;;;;;;;-0.45;100.00;100431.11;1578829;91;21083;-77
2022/11/15 01:56:29;;;;;;;19.60;9.23;;;;;;;-0.46;100.00;100429.42;1579144;91;21470;-77
2022/11/15 01:59:15;;;;;;;18.77;8.43;;;;;;;-0.49;100.00;100435.39;1579087;91;21115;-77
2022/11/15 02:02:00;;;;;;;17.40;8.23;;;;;;;-0.52;100.00;100446.19;1579201;91;21059;-75
2022/11/15 02:04:47;;;;;;;18.27;8.30;;;;;;;-0.56;100.00;100449.50;1564732;91;21586;-76
2022/11/15 02:07:35;;;;;;;16.80;7.93;;;;;;;-0.61;100.00;100450.23;1579359;91;21071;-76
2022/11/15 02:10:23;;;;;;;16.97;7.50;;;;;;;-0.63;100.00;100447.66;1579087;90;21147;-77
2022/11/15 02:13:08;;;;;;;16.70;8.03;;;;;;;-0.67;100.00;100451.94;1579370;90;21067;-77
2022/11/15 02:16:06;;;;;;;23.27;10.40;;;;;;;-0.68;100.00;100460.83;1579114;91;21075;-77
2022/11/15 02:19:07;;;;;;;21.70;10.87;;;;;;;-0.68;100.00;100454.19;1579314;90;21051;-77
2022/11/15 02:22:22;;;;;;;21.30;10.57;;;;;;;-0.62;100.00;100457.80;1579204;91;21513;-76
2022/11/15 02:25:28;;;;;;;23.17;10.17;;;;;;;-0.52;100.00;100464.30;1578849;90;21140;-77
2022/11/15 02:28:43;;;;;;;20.50;9.93;;;;;;;-0.44;100.00;100457.23;1609635;89;21072;-77
2022/11/15 02:31:43;;;;;;;21.37;10.60;;;;;;;-0.37;100.00;100459.03;1609353;89;21100;-76
2022/11/15 02:34:54;;;;;;;22.47;10.50;;;;;;;-0.32;100.00;100463.15;1609445;89;21088;-77
2022/11/15 02:38:22;;;;;;;24.53;11.13;;;;;;;-0.28;100.00;100461.16;1583871;91;21091;-76
2022/11/15 02:41:16;;;;;;;25.53;9.73;;;;;;;-0.27;100.00;100470.34;1582881;91;21666;-76
2022/11/15 02:44:15;;;;;;;23.50;10.40;;;;;;;-0.24;100.00;100471.98;1579900;91;21540;-77
2022/11/15 02:47:13;;;;;;;22.20;9.77;;;;;;;-0.22;100.00;100478.06;1579589;91;21090;-77
2022/11/15 02:50:01;;;;;;;19.47;8.70;;;;;;;-0.23;100.00;100486.52;1579744;91;21073;-77
2022/11/15 02:52:49;;;;;;;19.17;9.13;;;;;;;-0.23;100.00;100490.95;1579559;91;21091;-77
2022/11/15 02:55:41;;;;;;;21.93;9.17;;;;;;;-0.24;100.00;100487.93;1562942;91;21061;-75
2022/11/15 02:58:50;;;;;;;21.20;8.67;;;;;;;-0.27;100.00;100489.44;1474199;97;21145;-77
2022/11/15 03:01:59;;;;;;;19.90;7.57;;;;;;;-0.29;100.00;100493.50;1499035;95;21132;-77
2022/11/15 03:04:58;;;;;;;16.80;7.40;;;;;;;-0.29;100.00;100500.15;1474229;97;21128;-77
2022/11/15 03:08:15;;;;;;;19.40;8.43;;;;;;;-0.30;100.00;100502.89;1410763;102;21128;-77
2022/11/15 03:11:11;;;;;;;22.37;9.33;;;;;;;-0.31;100.00;100512.67;1410651;102;21148;-76
2022/11/15 03:14:08;;;;;;;17.83;8.10;;;;;;;-0.33;100.00;100503.94;1412575;101;21151;-76
2022/11/15 03:17:04;;;;;;;16.20;7.90;;;;;;;-0.34;100.00;100510.67;1449090;96;21172;-77
2022/11/15 03:20:07;;;;;;;16.63;6.90;;;;;;;-0.34;100.00;100515.50;1449180;99;21164;-77
2022/11/15 03:22:52;;;;;;;16.00;7.53;;;;;;;-0.36;100.00;100517.40;1449255;99;21108;-77
2022/11/15 03:25:42;;;;;;;14.50;6.57;;;;;;;-0.35;100.00;100519.58;1449016;98;21144;-76
2022/11/15 03:28:42;;;;;;;15.87;7.30;;;;;;;-0.35;100.00;100525.77;1456434;98;21629;-76
2022/11/15 03:31:48;;;;;;;19.53;7.00;;;;;;;-0.36;100.00;100532.50;1437044;99;21162;-77
2022/11/15 03:34:54;;;;;;;14.87;6.13;;;;;;;-0.40;100.00;100542.45;1442791;99;21167;-75
2022/11/15 03:38:10;;;;;;;11.27;5.87;;;;;;;-0.45;100.00;100552.00;1437171;100;21086;-76
2022/11/15 03:41:00;;;;;;;;;;;;;;;-0.48;100.00;100564.16;1465957;98;21161;-76
2022/11/15 03:44:02;;;;;;;11.60;5.30;;;;;;;-0.53;100.00;100562.67;1463680;98;20172;-77
2022/11/15 03:47:08;;;;;;;14.77;6.57;;;;;;;-0.59;100.00;100551.45;1443686;99;21203;-75
2022/11/15 03:50:00;;;;;;;13.77;5.47;;;;;;;-0.63;100.00;100556.56;1443764;99;21185;-77
2022/11/15 03:52:48;;;;;;;12.18;5.28;;;;;;;-0.66;100.00;100563.38;1443831;99;21074;-76
2022/11/15 03:55:32;;;;;;;9.50;4.97;;;;;;;-0.67;100.00;100562.16;1473766;96;21136;-77
2022/11/15 03:58:18;;;;;;;14.47;6.20;;;;;;;-0.68;100.00;100563.09;1481127;97;21149;-77
2022/11/15 04:01:04;;;;;;;13.83;6.50;;;;;;;-0.69;100.00;100564.89;1481181;97;21128;-77
2022/11/15 04:03:50;;;;;;;11.93;5.70;;;;;;;-0.71;100.00;100568.08;1513720;93;21141;-77
2022/11/15 04:06:35;;;;;;;14.63;5.70;;;;;;;-0.73;100.00;100572.63;1550486;93;21537;-75
2022/11/15 04:09:20;;;;;;;11.70;5.13;;;;;;;-0.75;100.00;100578.50;1550616;93;21064;-77
2022/11/15 04:12:07;;;;;;;11.60;5.13;;;;;;;-0.78;100.00;100570.70;1550635;92;21110;-77
2022/11/15 04:15:06;;;;;;;13.33;5.53;;;;;;;-0.81;100.00;100572.22;1550127;93;21148;-76
2022/11/15 04:17:55;;;;;;;10.27;5.13;;;;;;;-0.85;100.00;100576.84;1550210;93;21075;-76
2022/11/15 04:26:53;;;;;;;11.83;5.03;;;;;;;-0.94;100.00;100564.53;1553203;92;21056;-75
2022/11/15 04:29:38;;;;;;;8.93;4.47;;;;;;;-1.01;100.00;100553.39;1556520;92;21146;-77
2022/11/15 04:32:25;;;;;;;11.40;4.77;;;;;;;-1.05;100.00;100555.83;1556622;92;21110;-76
2022/11/15 04:35:11;;;;;;;9.10;4.20;;;;;;;-1.08;100.00;100548.91;1556671;92;21135;-76
2022/11/15 04:37:58;;;;;;;10.20;5.17;;;;;;;-1.08;100.00;100541.39;1558214;92;21126;-74
2022/11/15 04:40:44;;;;;;;10.50;4.70;;;;;;;-1.10;100.00;100542.80;1557814;92;21048;-75
2022/11/15 04:43:29;;;;;;;9.83;4.63;;;;;;;-1.12;100.00;100541.19;1568265;91;21071;-76
2022/11/15 04:46:14;;;;;;;8.87;4.70;;;;;;;-1.16;100.00;100541.83;1575333;91;21038;-76
2022/11/15 04:49:00;;;;;;;13.70;4.87;;;;;;;-1.18;100.00;100539.73;1575348;91;21124;-75
2022/11/15 04:51:45;;;;;;;9.83;4.83;;;;;;;-1.19;100.00;100545.97;1575340;91;21059;-76
2022/11/15 04:54:31;;;;;;;11.17;4.47;;;;;;;-1.19;100.00;100542.86;1575419;91;21114;-75
2022/11/15 04:57:17;;;;;;;11.40;4.60;;;;;;;-1.19;100.00;100546.84;1575467;90;21090;-77
2022/11/15 05:00:05;;;;;;;12.10;4.67;;;;;;;-1.20;100.00;100545.12;1575534;90;21022;-75
2022/11/15 05:05:57;;;;;;;10.47;4.80;;;;;;;-1.23;100.00;100551.06;1549043;90;21124;-76
2022/11/15 05:08:45;;;;;;;9.50;4.60;;;;;;;-1.25;100.00;100552.95;1549140;93;21121;-76
2022/11/15 05:11:30;;;;;;;12.20;5.30;;;;;;;-1.28;100.00;100546.47;1549096;93;21116;-76
2022/11/15 05:14:15;;;;;;;12.50;4.97;;;;;;;-1.31;100.00;100555.91;1549300;93;21100;-77
2022/11/15 05:17:01;;;;;;;10.33;4.70;;;;;;;-1.34;100.00;100545.86;1549451;93;21073;-75
2022/11/15 05:19:46;;;;;;;10.83;4.90;;;;;;;-1.35;100.00;100549.47;1549485;93;21562;-77
2022/11/15 05:22:32;;;;;;;10.00;4.77;;;;;;;-1.34;100.00;100558.27;1549658;93;21577;-77
2022/11/15 05:25:18;;;;;;;15.80;5.10;;;;;;;-1.34;100.00;100552.97;1549653;93;21103;-76
2022/11/15 05:28:03;;;;;;;10.77;4.90;;;;;;;-1.31;100.00;100554.59;1543392;93;21053;-77
2022/11/15 05:30:49;;;;;;;11.80;4.67;;;;;;;-1.30;100.00;100553.19;1541871;93;21571;-76
2022/11/15 05:33:38;;;;;;;14.37;4.53;;;;;;;-1.25;100.00;100559.10;1541583;93;21096;-76
2022/11/15 05:36:38;;;;;;;13.87;4.60;;;;;;;-1.23;100.00;100564.33;1528102;91;21110;-76
2022/11/15 05:39:25;;;;;;;13.57;5.10;;;;;;;-1.20;100.00;100567.67;1528689;94;21105;-76
2022/11/15 05:42:13;;;;;;;11.23;5.20;;;;;;;-1.13;100.00;100566.00;1529676;94;21078;-76
2022/11/15 05:44:58;;;;;;;9.70;4.53;;;;;;;-1.07;100.00;100561.70;1529607;94;21101;-76
2022/11/15 05:47:43;;;;;;;10.70;4.70;;;;;;;-0.99;100.00;100570.11;1529060;92;21123;-76
2022/11/15 05:50:29;;;;;;;10.33;5.17;;;;;;;-0.91;100.00;100575.84;1527542;94;21078;-76
2022/11/15 05:53:17;;;;;;;20.80;6.37;;;;;;;-0.85;100.00;100578.17;1527664;91;21192;-76
2022/11/15 05:56:05;;;;;;;13.83;5.70;;;;;;;-0.81;100.00;100573.55;1527421;94;21102;-75
2022/11/15 05:58:51;;;;;;;13.90;5.17;;;;;;;-0.77;100.00;100567.95;1527842;94;21134;-76
2022/11/15 06:01:36;;;;;;;14.57;5.33;;;;;;;-0.72;100.00;100570.85;1537497;93;21077;-76
2022/11/15 06:04:22;;;;;;;14.90;5.43;;;;;;;-0.69;100.00;100571.53;1537487;93;21097;-78
2022/11/15 06:07:07;;;;;;;15.17;6.37;;;;;;;-0.62;100.00;100572.91;1522858;94;21095;-77
2022/11/15 06:09:54;;;;;;;10.50;4.80;;;;;;;-0.53;100.00;100574.63;1520894;94;21655;-79
2022/11/15 06:12:39;;;;;;;11.43;5.10;;;;;;;-0.47;100.00;100583.12;1520771;94;21610;-75
2022/11/15 06:15:24;;;;;;;12.20;4.80;;;;;;;-0.37;100.00;100583.91;1520124;94;21135;-76
2022/11/15 06:18:09;;;;;;;13.57;4.70;;;;;;;-0.28;100.00;100568.80;1520786;94;21463;-75
2022/11/15 06:20:59;;;;;;;17.53;6.20;;;;;;;-0.18;100.00;100571.28;1520864;94;21046;-75
2022/11/15 06:23:45;;;;;;;15.03;6.33;;;;;;;-0.11;100.00;100572.63;1520797;94;21102;-76
2022/11/15 06:26:31;;;;;;;16.87;6.10;;;;;;;0.02;100.00;100578.56;1520955;91;21089;-78
2022/11/15 06:29:16;;;;;;;17.67;7.23;;;;;;;0.12;100.00;100569.95;1520411;94;21152;-77
2022/11/15 06:32:01;;;;;;;15.93;6.67;;;;;;;0.25;100.00;100574.53;1526371;92;21097;-77
2022/11/15 06:34:47;;;;;;;12.67;6.10;;;;;;;0.41;100.00;100574.47;1564613;92;21125;-75
2022/11/15 06:37:33;;;;;;;13.37;5.40;;;;;;;0.57;100.00;100561.97;1567212;90;21153;-74
2022/11/15 06:40:18;;;;;;;14.23;6.80;;;;;;;0.74;100.00;100559.58;1566967;89;21568;-73
2022/11/15 06:43:04;;;;;;;15.77;6.17;;;;;;;0.83;100.00;100558.99;1579118;91;21064;-78
2022/11/15 06:45:50;;;;;;;11.50;5.23;;;;;;;0.92;100.00;100558.44;1557511;92;21163;-78
2022/11/15 06:48:36;;;;;;;14.07;4.87;;;;;;;1.06;100.00;100550.03;1577284;91;21609;-77
2022/11/15 06:51:21;;;;;;;13.03;5.63;;;;;;;1.28;100.00;100558.86;1557470;92;21630;-78
2022/11/15 06:54:06;;;;;;;10.80;5.33;;;;;;;1.52;100.00;100547.06;1584378;89;21530;-75
2022/11/15 06:56:52;;;;;;;14.33;5.67;;;;;;;1.79;100.00;100552.86;1586483;89;21107;-77
2022/11/15 06:59:37;;;;;;;15.80;5.67;;;;;;;2.03;100.00;100548.55;1606989;89;21106;-73
2022/11/15 07:02:23;;;;;;;13.43;4.97;;;;;;;2.21;100.00;100543.80;1614371;89;21054;-74
2022/11/15 07:05:08;;;;;;;11.57;5.43;;;;;;;2.38;100.00;100528.43;1614291;88;21153;-77
2022/11/15 07:07:56;;;;;;;13.00;6.30;;;;;;;2.49;100.00;100520.52;1557155;92;21043;-76
2022/11/15 07:10:42;;;;;;;13.57;6.13;;;;;;;2.56;100.00;100504.44;1534960;94;21113;-75
2022/11/15 07:13:29;;;;;;;12.77;5.57;;;;;;;2.69;100.00;100495.56;1547106;93;21619;-77
2022/11/15 07:16:15;;;;;;;11.63;5.63;;;;;;;2.83;100.00;100484.73;1546837;93;21078;-76
2022/11/15 07:19:02;;;;;;;11.53;5.80;;;;;;;2.89;100.00;100474.97;1534599;94;21065;-76
2022/11/15 07:21:47;;;;;;;13.70;6.33;;;;;;;3.00;100.00;100460.33;1535206;94;21609;-79
2022/11/15 07:24:34;;;;;;;18.10;6.70;;;;;;;3.13;100.00;100446.08;1535394;94;21093;-77
2022/11/15 07:27:20;;;;;;;14.97;7.13;;;;;;;3.21;100.00;100433.86;1535455;92;21096;-78
2022/11/15 07:30:10;;;;;;;13.50;6.20;;;;;;;3.31;100.00;100424.69;1551028;91;21334;-78
2022/11/15 07:32:57;;;;;;;17.10;6.77;;;;;;;3.47;100.00;100419.03;1557962;92;21090;-80
2022/11/15 07:35:48;;;;;;;18.50;7.33;;;;;;;3.68;100.00;100413.84;1572430;91;21057;-78
2022/11/15 07:38:37;;;;;;;15.03;7.00;;;;;;;3.78;100.00;100406.83;1584133;89;21030;-79
2022/11/15 07:41:23;;;;;;;13.57;6.63;;;;;;;3.84;100.00;100393.45;1528436;93;21109;-75
2022/11/15 07:44:10;;;;;;;15.27;8.07;;;;;;;3.79;100.00;100385.80;1514810;95;21105;-79
2022/11/15 07:46:55;;;;;;;14.23;7.87;;;;;;;3.88;100.00;100380.69;1514771;94;21109;-76
2022/11/15 07:49:40;;;;;;;18.90;7.70;;;;;;;3.99;100.00;100371.35;1513862;95;21129;-74
2022/11/15 07:52:25;;;;;;;13.47;7.13;;;;;;;4.17;100.00;100364.53;1517647;93;21593;-74
2022/11/15 07:55:14;;;;;;;16.33;6.87;;;;;;;4.34;100.00;100366.37;1522532;93;21045;-77
2022/11/15 07:58:10;;;;;;;17.10;7.57;;;;;;;4.43;100.00;100353.58;1514656;95;21124;-73
2022/11/15 08:00:56;;;;;;;19.20;9.13;;;;;;;4.64;100.00;100356.34;1512108;95;21147;-72
2022/11/15 08:03:45;;;;;;;20.13;9.10;;;;;;;4.79;100.00;100360.92;1511196;95;21098;-73
2022/11/15 08:06:31;;;;;;;19.77;9.73;;;;;;;4.93;100.00;100349.07;1479238;97;21088;-72
2022/11/15 08:09:18;;;;;;;29.57;15.23;;;;;;;5.01;100.00;100347.95;1479710;97;21158;-73
2022/11/15 08:12:04;;;;;;;28.07;10.40;;;;;;;5.09;100.00;100345.97;1479377;97;21642;-73
2022/11/15 08:14:50;;;;;;;22.63;10.10;;;;;;;5.21;100.00;100344.94;1499694;96;21096;-74
2022/11/15 08:17:36;;;;;;;21.47;8.93;;;;;;;5.38;100.00;100349.36;1494862;95;21140;-75
2022/11/15 08:20:22;;;;;;;20.57;9.70;;;;;;;5.46;100.00;100357.62;1495435;96;21101;-76
2022/11/15 08:23:10;;;;;;;20.17;10.73;;;;;;;5.44;100.00;100359.08;1495073;96;21148;-75
2022/11/15 08:26:02;;;;;;;23.67;8.93;;;;;;;5.51;100.00;100371.48;1496722;96;21689;-76
2022/11/15 08:28:47;;;;;;;21.97;8.80;;;;;;;5.52;100.00;100367.81;1470466;97;21190;-74
2022/11/15 08:31:38;;;;;;;18.00;7.37;;;;;;;5.52;100.00;100377.20;1444474;99;21667;-73
2022/11/15 08:37:15;;;;;;;16.33;7.50;;;;;;;5.05;100.00;100405.68;1421623;99;21135;-75
2022/11/15 08:40:03;;;;;;;18.33;7.50;;;;;;;4.86;100.00;100422.91;1439731;99;21157;-75
2022/11/15 08:42:48;;;;;;;13.63;6.23;;;;;;;4.89;100.00;100428.87;1440002;99;21132;-79
2022/11/15 08:45:35;;;;;;;20.07;8.07;;;;;;;5.16;100.00;100432.94;1434107;99;21619;-76
2022/11/15 08:48:21;;;;;;;21.77;7.70;;;;;;;5.56;100.00;100426.95;1432144;99;21156;-76
2022/11/15 08:51:07;;;;;;;17.80;5.90;;;;;;;6.01;100.00;100429.39;1432420;100;21176;-76
2022/11/15 08:53:52;;;;;;;10.80;4.97;;;;;;;6.43;100.00;100427.14;1431683;100;21125;-76
2022/11/15 08:56:39;;;;;;;12.93;5.03;;;;;;;6.76;100.00;100450.16;1431986;99;21109;-75
2022/11/15 08:59:24;;;;;;;11.03;5.33;;;;;;;6.86;100.00;100465.48;1431709;99;21113;-74
2022/11/15 09:05:00;;;;;;;11.83;5.00;;;;;;;6.99;100.00;100530.61;1357990;105;21161;-78
2022/11/15 09:07:46;;;;;;;8.23;4.77;;;;;;;7.11;100.00;100540.78;1350046;105;21200;-78
2022/11/15 09:10:32;;;;;;;26.27;9.77;;;;;;;7.25;100.00;100539.05;1352756;105;21204;-77
2022/11/15 09:13:18;;;;;;;34.33;12.50;;;;;;;7.43;100.00;100540.58;1384874;103;21716;-77
2022/11/15 09:16:05;;;;;;;17.77;6.10;;;;;;;7.53;100.00;100556.25;1385131;103;21149;-75
2022/11/15 09:18:50;;;;;;;11.90;4.73;;;;;;;7.71;100.00;100571.72;1381374;103;21176;-74
2022/11/15 09:21:36;;;;;;;9.43;4.63;;;;;;;7.56;100.00;100584.23;1379204;103;21209;-78
2022/11/15 09:24:22;;;;;;;9.57;3.73;;;;;;;7.45;100.00;100591.06;1383954;99;21124;-76
2022/11/15 09:27:08;;;;;;;9.80;4.13;;;;;;;7.30;100.00;100599.17;1417775;100;21124;-74
2022/11/15 09:29:53;;;;;;;7.00;3.87;;;;;;;7.15;100.00;100602.70;1412059;100;21171;-74
2022/11/15 09:32:39;;;;;;;9.20;3.77;;;;;;;7.08;100.00;100594.32;1414170;100;21141;-75
2022/11/15 09:35:26;;;;;;;6.80;3.73;;;;;;;7.09;100.00;100590.66;1413420;100;21124;-75
2022/11/15 09:38:12;;;;;;;10.60;4.27;;;;;;;7.12;100.00;100596.25;1421526;100;21166;-73
2022/11/15 09:41:19;;;;;;;6.97;3.60;;;;;;;7.17;100.00;100588.16;1444842;99;21088;-74
2022/11/15 09:44:42;;;;;;;10.07;4.73;;;;;;;7.21;100.00;100578.81;1433457;99;21157;-81
2022/11/15 09:47:54;;;;;;;13.37;4.37;;;;;;;7.14;100.00;100583.04;1411451;99;21111;-77
2022/11/15 09:50:43;;;;;;;10.03;4.30;;;;;;;7.29;100.00;100566.02;1423426;99;21598;-76
2022/11/15 09:53:16;;;;;;;8.23;4.37;;;;;;;7.36;100.00;100564.48;1371547;105;21197;-75
2022/11/15 09:56:00;;;;;;;8.50;4.03;;;;;;;7.49;100.00;100557.53;1366503;105;21175;-76
2022/11/15 09:58:59;;;;;;;10.13;4.87;;;;;;;7.60;100.00;100557.89;1366151;104;21143;-76
2022/11/15 10:02:06;;;;;;;10.30;4.47;;;;;;;7.58;100.00;100551.30;1404298;98;21100;-76
2022/11/15 10:04:36;;;;;;;12.30;4.80;;;;;;;7.62;100.00;100555.91;1467205;97;21133;-75
2022/11/15 10:07:21;;;;;;;12.33;4.87;;;;;;;7.52;100.00;100553.69;1466070;95;21146;-75
2022/11/15 10:10:03;;;;;;;10.13;4.53;;;;;;;7.54;100.00;100556.62;1482789;96;21128;-78
2022/11/15 10:12:30;;;;;;;15.30;4.73;;;;;;;7.49;100.00;100553.96;1485257;97;21110;-86
2022/11/15 10:15:07;;;;;;;14.33;6.17;;;;;;;7.44;100.00;100549.02;1484223;97;21060;-77
2022/11/15 10:17:57;;;;;;;22.73;7.97;;;;;;;7.43;100.00;100547.80;1484724;97;21173;-76
2022/11/15 10:20:28;;;;;;;12.80;5.80;;;;;;;7.56;100.00;100539.83;1421278;100;21074;-83
2022/11/15 10:23:03;;;;;;;8.03;4.20;;;;;;;7.83;100.00;100540.98;1417929;99;21191;-77
2022/11/15 10:25:32;;;;;;;14.20;4.90;;;;;;;7.97;100.00;100543.25;1459339;98;21111;-74
2022/11/15 10:28:17;;;;;;;11.20;4.80;;;;;;;8.01;100.00;100545.67;1444993;98;21193;-81
2022/11/15 10:30:53;;;;;;;11.13;4.13;;;;;;;8.08;100.00;100539.56;1429091;99;21186;-73
2022/11/15 10:33:38;;;;;;;10.30;3.83;;;;;;;8.25;100.00;100540.70;1429746;98;21051;-73
2022/11/15 10:36:20;;;;;;;11.83;5.03;;;;;;;8.36;100.00;100541.03;1446162;99;21165;-73
2022/11/15 10:38:54;;;;;;;11.23;6.10;;;;;;;8.48;100.00;100534.52;1445778;99;21151;-74
2022/11/15 10:41:34;;;;;;;10.47;4.47;;;;;;;8.44;100.00;100543.87;1443791;99;21190;-73
2022/11/15 10:44:21;;;;;;;12.00;4.80;;;;;;;8.25;100.00;100546.08;1438572;99;21045;-78
2022/11/15 10:47:02;;;;;;;12.10;5.07;;;;;;;8.09;100.00;100545.79;1465037;98;21173;-78
2022/11/15 10:49:31;;;;;;;8.77;3.90;;;;;;;7.99;100.00;100545.81;1454024;97;21061;-74
2022/11/15 10:52:14;;;;;;;7.77;3.67;;;;;;;7.85;100.00;100535.47;1474477;96;21138;-77
2022/11/15 10:54:52;;;;;;;6.33;3.70;;;;;;;7.59;100.00;100527.42;1483380;96;21050;-77
2022/11/15 10:57:22;;;;;;;9.83;4.00;;;;;;;7.42;100.00;100522.75;1459300;96;21758;-76
2022/11/15 11:00:01;;;;;;;6.27;3.07;;;;;;;7.27;100.00;100516.05;1459572;98;21158;-81
2022/11/15 11:02:39;;;;;;;9.10;3.93;;;;;;;7.05;100.00;100519.33;1393465;102;21201;-82
2022/11/15 11:05:33;;;;;;;9.07;4.27;;;;;;;6.87;100.00;100511.53;1387512;103;21138;-77
2022/11/15 11:08:17;;;;;;;8.10;3.87;;;;;;;6.82;100.00;100501.20;1396201;102;21162;-78
2022/11/15 11:10:57;;;;;;;7.25;3.90;;;;;;;6.75;100.00;100493.33;1412882;100;21138;-79
2022/11/15 11:13:27;;;;;;;6.53;3.43;;;;;;;6.68;100.00;100482.25;1409210;102;21133;-79
2022/11/15 11:16:16;;;;;;;5.33;3.80;;;;;;;6.72;100.00;100477.46;1414234;100;21079;-81
2022/11/15 11:19:10;;;;;;;22.48;8.10;;;;;;;6.68;100.00;100481.41;1441728;100;21689;-80
2022/11/15 11:22:00;;;;;;;10.57;5.27;;;;;;;6.62;100.00;100471.56;1410655;100;21338;-75
2022/11/15 11:24:55;;;;;;;17.90;5.37;;;;;;;6.62;100.00;100466.19;1453061;98;21137;-78
2022/11/15 11:27:37;;;;;;;14.53;6.53;;;;;;;6.75;100.00;100452.50;1443051;99;21167;-75
2022/11/15 11:30:12;;;;;;;10.03;4.50;;;;;;;7.04;100.00;100452.57;1432382;99;21653;-79
2022/11/15 11:33:00;;;;;;;12.03;5.70;;;;;;;7.17;100.00;100455.50;1415140;100;21098;-86
2022/11/15 11:35:59;;;;;;;15.00;5.90;;;;;;;7.37;100.00;100451.02;1382276;102;21173;-75
2022/11/15 11:38:54;;;;;;;11.53;3.97;;;;;;;7.58;100.00;100456.27;1364939;104;21167;-78
2022/11/15 11:41:49;;;;;;;8.57;4.33;;;;;;;7.75;100.00;100456.03;1365414;105;21184;-81
2022/11/15 11:44:37;;;;;;;11.07;4.17;;;;;;;7.89;100.00;100458.28;1366177;105;21165;-83
2022/11/15 11:47:24;;;;;;;9.10;3.83;;;;;;;8.09;100.00;100452.39;1366218;105;21703;-84
2022/11/15 11:49:58;;;;;;;8.17;4.87;;;;;;;8.35;100.00;100458.48;1366339;105;21165;-80
2022/11/15 11:52:44;;;;;;;9.30;4.70;;;;;;;8.55;100.00;100461.51;1366420;105;21091;-80
2022/11/15 11:55:27;;;;;;;19.93;6.77;;;;;;;8.77;100.00;100470.21;1356281;103;21228;-77
2022/11/15 11:58:25;;;;;;;10.67;4.77;;;;;;;9.10;100.00;100455.75;1351471;105;21206;-74
2022/11/15 12:00:58;;;;;;;15.35;6.12;;;;;;;9.55;100.00;100446.78;1379201;103;21216;-78
2022/11/15 12:03:57;;;;;;;9.25;4.28;;;;;;;9.76;100.00;100451.03;1377636;104;21144;-74
2022/11/15 12:06:40;;;;;;;8.43;4.37;;;;;;;10.07;100.00;100454.13;1377930;104;21152;-77
2022/11/15 12:09:51;;;;;;;10.45;5.22;;;;;;;10.16;100.00;100459.09;1377775;104;21173;-74
2022/11/15 12:12:32;;;;;;;7.42;3.80;;;;;;;10.10;100.00;100464.63;1423237;97;21266;-80
2022/11/15 12:15:13;;;;;;;8.20;4.42;;;;;;;10.24;100.00;100460.00;1479867;97;21619;-77
2022/11/15 12:17:40;;;;;;;11.43;4.80;;;;;;;10.39;100.00;100455.39;1458202;98;21168;-78
2022/11/15 12:20:21;;;;;;;13.80;6.05;;;;;;;10.42;100.00;100458.62;1471750;97;21116;-79
2022/11/15 12:23:10;;;;;;;10.93;5.22;;;;;;;10.60;100.00;100453.13;1477052;97;21148;-78
2022/11/15 12:26:02;;;;;;;9.55;4.65;;;;;;;10.70;100.00;100458.44;1475292;97;21148;-78
2022/11/15 12:28:55;;;;;;;9.70;4.83;;;;;;;10.46;100.00;100461.84;1485286;93;21130;-78
2022/11/15 12:31:36;;;;;;;8.38;4.33;;;;;;;10.35;100.00;100452.66;1515073;95;21083;-80
2022/11/15 12:34:21;;;;;;;10.00;4.47;;;;;;;10.21;100.00;100453.55;1513208;93;21622;-77
2022/11/15 12:36:50;;;;;;;12.80;5.50;;;;;;;10.21;100.00;100440.03;1512232;95;21560;-79
2022/11/15 12:39:19;;;;;;;6.37;3.83;;;;;;;10.29;100.00;100432.50;1513213;95;21155;-81
2022/11/15 12:42:01;;;;;;;9.98;4.33;;;;;;;10.24;100.00;100426.22;1512136;94;21146;-75
2022/11/15 12:44:39;;;;;;;11.53;4.60;;;;;;;10.13;100.00;100425.62;1494372;96;21167;-75
2022/11/15 12:47:25;;;;;;;8.58;4.33;;;;;;;10.02;100.00;100421.33;1495494;96;21538;-85
2022/11/15 12:49:52;;;;;;;10.03;4.97;;;;;;;9.94;100.00;100419.94;1495396;96;21072;-75
2022/11/15 12:52:19;;;;;;;8.95;4.40;;;;;;;9.94;100.00;100408.62;1494327;96;21230;-77
2022/11/15 12:54:55;;;;;;;9.20;4.33;;;;;;;9.97;100.00;100406.97;1494630;96;21044;-82
2022/11/15 12:57:33;;;;;;;16.17;5.22;;;;;;;10.03;100.00;100412.23;1494405;96;21096;-74